Time;durP1;ratioP1;P1;durP2;ratioP2;P2;SDS_P1;SDS_P2;PMS_P1;PMS_P2;Temp;Humidity;BMP_temperature;BMP_pressure;BME280_temperature;BME280_humidity;BME280_pressure;Samples;Min_cycle;Max_cycle;Signal;HPM_P1;HPM_P2
2022/10/11 16:55:54;;;;;;;;;;;;;;;;;;1366012;19;87035;-79
2022/10/11 16:56:24;;;;;;;;;;;;;;;;;;1361766;19;36552;-77
2022/10/11 16:56:55;;;;;;;;;;;;;;;;;;1430973;19;27210;-77
2022/10/11 16:57:28;;;;;;;;;;;;;;;;;;1499346;19;1404;-80
2022/10/11 16:57:59;;;;;;;;;;;;;;;;;;1500454;19;1002;-77
2022/10/11 16:58:29;;;;;;;;;;;;;;;;;;1500609;19;976;-77
2022/10/11 16:59:02;;;;;;;;;;;;;;;;;;1395952;19;29767;-76
2022/10/11 16:59:32;;;;;;;;;;;;;;;;;;1345671;19;26584;-74
2022/10/11 17:00:03;;;;;;;;;;;;;;;;;;1419209;19;29990;-76
2022/10/11 17:00:36;;;;;;;;;;;;;;;;;;1500314;19;1078;-73
2022/10/11 17:01:08;;;;;;;;;;;;;;;;;;1424676;19;26870;-77
2022/10/11 17:01:38;;;;;;;;;;;;;;;;;;1427724;19;25093;-75
2022/10/11 17:02:11;;;;;;;;;;;;;;;;;;1500337;19;1006;-77
2022/10/11 17:02:41;;;;;;;;;;;;;;;;;;1500397;19;1237;-76
2022/10/11 17:03:12;;;;;;;;;;;;;;;;;;1500443;19;1515;-77
2022/10/11 17:03:47;;;;;;;;;;;;;;;;;;1501108;19;1073;-78
2022/10/11 17:04:17;;;;;;;;;;;;;;;;;;1501057;19;981;-84
2022/10/11 17:04:50;;;;;;;;;;;;;;;;;;1501036;19;1030;-77
2022/10/11 17:05:23;;;;;;;;;;;;;;;;;;1499629;19;1862;-79
2022/10/11 17:05:54;;;;;;;;;;;;;;;;;;1500022;19;1053;-82
2022/10/11 17:06:24;;;;;;;;;;;;;;;;;;1499386;19;1062;-87
2022/10/11 17:06:58;;;;;;;;;;;;;;;;;;1500395;19;1041;-87
2022/10/11 17:07:29;;;;;;;;;;;;;;;;;;1499822;19;1065;-81
2022/10/11 17:08:02;;;;;;;;;;;;;;;;;;1447595;19;26616;-80
2022/10/11 17:08:34;;;;;;;;;;;;;;;;;;1499078;19;1135;-85
2022/10/11 17:09:04;;;;;;;;;;;;;;;;;;1499180;19;962;-81
2022/10/11 17:09:38;;;;;;;;;;;;;;;;;;1499387;19;1021;-79
2022/10/11 17:10:08;;;;;;;;;;;;;;;;;;1446835;19;32867;-80
2022/10/11 17:10:39;;;;;;;;;;;;;;;;;;1446753;19;22736;-80
2022/10/11 17:11:12;;;;;;;;;;;;;;;;;;1318235;19;31112;-81
2022/10/11 17:11:45;;;;;;;;;;;;;;;;;;1421970;19;28841;-84
2022/10/11 17:12:16;;;;;;;;;;;;;;;;;;1499258;19;985;-84
2022/10/11 17:12:49;;;;;;;;;;;;;;;;;;1446740;19;24695;-78
2022/10/11 17:13:20;;;;;;;;;;;;;;;;;;1337442;19;70447;-78
2022/10/11 17:13:52;;;;;;;;;;;;;;;;;;1436266;19;21638;-78
2022/10/11 17:14:25;;;;;;;;;;;;;;;;;;1344900;19;59871;-76
2022/10/11 17:14:55;;;;;;;;;;;;;;;;;;1104352;19;5011089;-75
2022/10/11 17:15:28;;;;;;;;;;;;;;;;;;1414525;19;22940;-76
2022/10/11 17:16:01;;;;;;;;;;;;;;;;;;1498805;19;947;-76
2022/10/11 17:16:31;;;;;;;;;;;;;;;;;;1473760;19;21468;-76
2022/10/11 17:17:02;;;;;;;;;;;;;;;;;;1394696;19;24116;-75
2022/10/11 17:17:35;;;;;;;;;;;;;;;;;;1436974;19;24197;-80
2022/10/11 17:18:05;;;;;;;;;;;;;;;;;;1447103;19;21588;-75
2022/10/11 17:18:36;;;;;;;;;;;;;;;;;;1427078;19;28241;-76
2022/10/11 17:19:09;;;;;;;;;;;;;;;;;;1374059;19;26108;-79
2022/10/11 17:19:40;;;;;;;;;;;;;;;;;;1396930;19;311936;-76
2022/10/11 17:20:23;;;;;;;;;;;;;;;;;;1388476;19;5011225;-78
2022/10/11 17:20:59;;;;;;;;;;;;;;;;;;1156486;19;5011145;-81
2022/10/11 17:21:29;;;;;;;;;;;;;;;;;;1447594;19;23557;-71
2022/10/11 17:22:02;;;;;;;;;;;;;;;;;;1448084;19;23733;-77
2022/10/11 17:22:32;;;;;;;;;;;;;;;;;;1345680;19;27965;-73
2022/10/11 17:23:03;;;;;;;;;;;;;;;;;;1383247;19;35679;-73
2022/10/11 17:23:36;;;;;;;;;;;;;;;;;;1500100;19;978;-73
2022/10/11 17:24:06;;;;;;;;;;;;;;;;;;1448058;19;26703;-74
2022/10/11 17:24:36;;;;;;;;;;;;;;;;;;1454933;19;18636;-72
2022/10/11 17:25:10;;;;;;;;;;;;;;;;;;1444671;19;23417;-71
2022/10/11 17:25:41;;;;;;;;;;;;;;;;;;1445967;19;68774;-72
2022/10/11 17:26:14;;;;;;;;;;;;;;;;;;1448200;19;22234;-72
2022/10/11 17:26:49;;;;;;;;;;;;;;;;;;1444195;19;105097;-72
2022/10/11 17:27:20;;;;;;;;;;;;;;;;;;1448075;19;22421;-73
2022/10/11 17:27:56;;;;;;;;;;;;;;;;;;1448273;19;19915;-74
2022/10/11 17:28:26;;;;;;;;;;;;;;;;;;1396725;19;21498;-73
2022/10/11 17:29:01;;;;;;;;;;;;;;;;;;1374432;19;24150;-73
2022/10/11 17:29:31;;;;;;;;;;;;;;;;;;1307280;19;30251;-72
2022/10/11 17:30:02;;;;;;;;;;;;;;;;;;1394491;19;25544;-73
2022/10/11 17:30:35;;;;;;;;;;;;;;;;;;1500101;19;936;-73
2022/10/11 17:31:05;;;;;;;;;;;;;;;;;;1500234;19;955;-73
2022/10/11 17:31:38;;;;;;;;;;;;;;;;;;1500270;19;967;-72
